createdAt,value
2022-12-05T00:01:38.777Z,17.83
2022-12-05T00:06:42.816Z,19.70
2022-12-05T00:09:13.702Z,18.48
2022-12-05T00:11:45.754Z,18.40
2022-12-05T00:14:16.050Z,16.83
2022-12-05T00:16:46.495Z,17.63
2022-12-05T00:19:17.568Z,19.00
2022-12-05T00:21:49.737Z,18.52
2022-12-05T00:24:20.048Z,17.05
2022-12-05T00:26:50.282Z,18.40
2022-12-05T00:29:19.951Z,18.65
2022-12-05T00:31:49.674Z,18.95
2022-12-05T00:34:19.449Z,18.75
2022-12-05T00:36:51.623Z,16.05
2022-12-05T00:39:21.230Z,17.88
2022-12-05T00:41:50.803Z,17.90
2022-12-05T00:44:20.392Z,17.92
2022-12-05T00:46:49.982Z,18.70
2022-12-05T00:49:19.580Z,17.00
2022-12-05T00:51:51.776Z,20.60
2022-12-05T00:54:21.340Z,18.63
2022-12-05T00:56:52.451Z,19.63
2022-12-05T00:59:22.805Z,19.02
2022-12-05T01:01:54.021Z,19.42
2022-12-05T01:04:25.828Z,18.17
2022-12-05T01:07:01.144Z,19.13
2022-12-05T01:09:30.830Z,18.23
2022-12-05T01:12:00.400Z,18.98
2022-12-05T01:14:30.206Z,19.15
2022-12-05T01:16:59.876Z,18.65
2022-12-05T01:19:31.919Z,17.83
2022-12-05T01:22:04.084Z,19.63
2022-12-05T01:24:33.713Z,18.90
2022-12-05T01:27:03.285Z,18.88
2022-12-05T01:29:33.052Z,15.88
2022-12-05T01:32:02.866Z,19.02
2022-12-05T01:34:32.691Z,19.90
2022-12-05T01:37:05.007Z,19.63
2022-12-05T01:39:34.914Z,16.98
2022-12-05T01:42:04.680Z,18.25
2022-12-05T01:45:16.500Z,17.98
2022-12-05T01:47:46.530Z,19.65
2022-12-05T01:50:16.608Z,18.60
2022-12-05T01:52:48.916Z,19.92
2022-12-05T01:55:20.684Z,19.73
2022-12-05T01:57:50.988Z,19.35
2022-12-05T02:00:22.462Z,16.48
2022-12-05T02:02:55.619Z,19.17
2022-12-05T02:05:28.770Z,19.40
2022-12-05T02:08:01.958Z,20.48
2022-12-05T02:10:33.978Z,19.17
2022-12-05T02:13:10.586Z,19.73
2022-12-05T02:15:44.871Z,17.15
2022-12-05T02:21:08.170Z,17.77
2022-12-05T02:24:09.588Z,18.02
2022-12-05T02:26:59.515Z,18.25
2022-12-05T02:30:02.767Z,17.98
2022-12-05T02:32:47.268Z,18.52
2022-12-05T02:37:57.821Z,18.10
2022-12-05T02:40:29.916Z,19.77
2022-12-05T02:43:03.811Z,17.90
2022-12-05T02:45:38.732Z,19.35
2022-12-05T02:48:09.411Z,18.13
2022-12-05T02:50:40.737Z,18.73
2022-12-05T02:53:12.977Z,18.88
2022-12-05T02:55:43.687Z,19.23
2022-12-05T02:58:17.903Z,19.90
2022-12-05T03:03:22.687Z,17.77
2022-12-05T03:05:54.699Z,19.15
2022-12-05T03:08:28.827Z,18.42
2022-12-05T03:10:59.239Z,19.58
2022-12-05T03:13:30.739Z,20.73
2022-12-05T03:16:06.278Z,19.33
2022-12-05T03:18:40.517Z,19.27
2022-12-05T03:23:43.655Z,19.35
2022-12-05T03:26:20.660Z,21.80
2022-12-05T03:28:58.754Z,18.73
2022-12-05T03:31:35.953Z,20.33
2022-12-05T03:34:06.514Z,22.77
2022-12-05T03:36:42.336Z,21.10
2022-12-05T03:39:14.411Z,22.35
2022-12-05T03:41:47.467Z,24.08
2022-12-05T03:44:22.047Z,23.33
2022-12-05T03:46:57.050Z,24.35
2022-12-05T03:49:33.886Z,22.42
2022-12-05T03:52:09.306Z,22.70
2022-12-05T03:54:41.703Z,22.88
2022-12-05T03:57:14.669Z,21.45
2022-12-05T03:59:48.920Z,22.25
2022-12-05T04:04:55.668Z,21.98
2022-12-05T04:09:59.869Z,20.77
2022-12-05T04:12:33.043Z,21.30
2022-12-05T04:15:06.190Z,21.25
2022-12-05T04:17:40.548Z,21.88
2022-12-05T04:20:27.397Z,19.75
2022-12-05T04:22:56.966Z,21.30
2022-12-05T04:25:33.345Z,20.27
2022-12-05T04:28:16.722Z,20.48
2022-12-05T04:30:54.913Z,19.10
2022-12-05T04:33:34.255Z,20.23
2022-12-05T04:36:06.957Z,20.02
2022-12-05T04:38:42.445Z,18.35
2022-12-05T04:41:16.841Z,18.83
2022-12-05T04:43:47.944Z,19.27
2022-12-05T04:46:19.480Z,17.27
2022-12-05T04:48:54.003Z,18.73
2022-12-05T04:51:25.393Z,19.95
2022-12-05T04:53:57.913Z,18.27
2022-12-05T04:56:32.209Z,18.63
2022-12-05T04:59:02.172Z,16.73
2022-12-05T05:01:37.353Z,17.33
2022-12-05T05:04:14.905Z,17.75
2022-12-05T05:06:44.728Z,17.73
2022-12-05T05:09:14.451Z,17.55
2022-12-05T05:11:44.080Z,17.63
2022-12-05T05:14:13.623Z,17.33
2022-12-05T05:16:45.354Z,17.48
2022-12-05T05:19:17.549Z,16.58
2022-12-05T05:21:48.629Z,16.88
2022-12-05T05:24:18.657Z,16.45
2022-12-05T05:26:53.901Z,17.30
2022-12-05T05:29:26.672Z,16.95
2022-12-05T05:31:56.196Z,16.65
2022-12-05T05:34:28.796Z,16.27
2022-12-05T05:36:58.352Z,16.15
2022-12-05T05:39:29.524Z,16.50
2022-12-05T05:41:59.074Z,15.27
2022-12-05T05:44:28.644Z,16.27
2022-12-05T05:46:58.258Z,17.02
2022-12-05T05:49:30.542Z,16.05
2022-12-05T05:52:00.065Z,16.60
2022-12-05T05:54:29.631Z,16.67
2022-12-05T05:56:59.179Z,16.17
2022-12-05T05:59:28.789Z,16.17
2022-12-05T06:01:58.320Z,15.82
2022-12-05T06:04:30.435Z,15.60
2022-12-05T06:06:59.948Z,15.73
2022-12-05T06:09:29.603Z,15.55
2022-12-05T06:11:59.147Z,15.45
2022-12-05T06:14:28.696Z,16.40
2022-12-05T06:17:01.052Z,16.67
2022-12-05T06:19:33.353Z,14.68
2022-12-05T06:22:02.894Z,14.98
2022-12-05T06:24:32.448Z,15.45
2022-12-05T06:27:01.996Z,15.85
2022-12-05T06:29:33.984Z,15.25
2022-12-05T06:32:07.559Z,15.60
2022-12-05T06:34:39.784Z,15.63
2022-12-05T06:37:09.364Z,14.75
2022-12-05T06:39:38.930Z,15.88
2022-12-05T06:42:08.609Z,16.20
2022-12-05T06:44:38.166Z,15.18
2022-12-05T06:47:07.843Z,15.52
2022-12-05T06:49:40.315Z,14.82
2022-12-05T06:52:09.852Z,15.98
2022-12-05T06:54:39.430Z,15.63
2022-12-05T06:57:09.705Z,15.27
2022-12-05T06:59:39.245Z,17.23
2022-12-05T07:02:08.434Z,15.27
2022-12-05T07:04:40.772Z,16.75
2022-12-05T07:07:10.719Z,17.67
2022-12-05T07:09:49.362Z,16.63
2022-12-05T07:12:21.190Z,15.25
2022-12-05T07:14:51.828Z,15.13
2022-12-05T07:17:21.918Z,16.63
2022-12-05T07:19:55.728Z,16.20
2022-12-05T07:22:26.270Z,16.60
2022-12-05T07:24:55.967Z,16.67
2022-12-05T07:27:27.911Z,16.00
2022-12-05T07:29:58.119Z,16.58
2022-12-05T07:32:27.953Z,16.00
2022-12-05T07:35:00.108Z,15.70
2022-12-05T07:37:29.678Z,14.52
2022-12-05T07:39:59.511Z,15.00
2022-12-05T07:42:30.539Z,15.90
2022-12-05T07:45:00.106Z,16.77
2022-12-05T07:47:29.714Z,15.45
2022-12-05T07:50:01.872Z,15.32
2022-12-05T07:52:32.272Z,15.73
2022-12-05T07:55:01.823Z,16.00
2022-12-05T07:57:32.386Z,16.17
2022-12-05T08:00:01.931Z,16.98
2022-12-05T08:02:31.587Z,17.40
2022-12-05T08:05:03.804Z,17.80
2022-12-05T08:07:33.392Z,17.13
2022-12-05T08:10:03.011Z,18.10
2022-12-05T08:12:32.544Z,17.95
2022-12-05T08:15:02.098Z,17.75
2022-12-05T08:17:33.557Z,17.38
2022-12-05T08:20:05.766Z,17.60
2022-12-05T08:22:35.330Z,18.08
2022-12-05T08:25:04.909Z,17.42
2022-12-05T08:27:34.795Z,17.58
2022-12-05T08:30:04.602Z,16.58
2022-12-05T08:32:34.205Z,18.00
2022-12-05T08:35:06.812Z,17.70
2022-12-05T08:37:36.383Z,17.55
2022-12-05T08:40:06.801Z,17.45
2022-12-05T08:42:36.454Z,17.00
2022-12-05T08:45:06.346Z,17.77
2022-12-05T08:47:35.868Z,18.20
2022-12-05T08:50:09.526Z,17.63
2022-12-05T08:52:39.091Z,17.85
2022-12-05T08:55:09.918Z,16.27
2022-12-05T08:57:39.621Z,17.25
2022-12-05T09:00:11.092Z,16.88
2022-12-05T09:02:40.672Z,17.40
2022-12-05T09:05:27.741Z,16.88
2022-12-05T09:07:59.397Z,16.83
2022-12-05T09:10:29.464Z,16.58
2022-12-05T09:12:59.156Z,17.95
2022-12-05T09:15:28.733Z,17.23
2022-12-05T09:17:58.292Z,17.65
2022-12-05T09:20:30.398Z,16.98
2022-12-05T09:22:59.951Z,15.77
2022-12-05T09:25:29.496Z,16.83
2022-12-05T09:27:59.155Z,15.70
2022-12-05T09:30:28.703Z,15.35
2022-12-05T09:32:58.289Z,16.13
2022-12-05T09:35:30.428Z,16.40
2022-12-05T09:38:00.008Z,15.82
2022-12-05T09:40:30.373Z,16.42
2022-12-05T09:43:05.531Z,17.83
2022-12-05T09:45:38.803Z,17.73
2022-12-05T09:48:10.197Z,17.60
2022-12-05T09:50:47.999Z,18.30
2022-12-05T09:53:27.654Z,17.50
2022-12-05T09:56:00.360Z,17.70
2022-12-05T09:58:33.913Z,18.02
2022-12-05T10:01:07.209Z,18.17
2022-12-05T10:03:41.932Z,19.00
2022-12-05T10:06:18.551Z,17.58
2022-12-05T10:09:01.658Z,17.52
2022-12-05T10:11:37.591Z,19.40
2022-12-05T10:14:12.025Z,20.70
2022-12-05T10:16:44.771Z,20.85
2022-12-05T10:19:16.413Z,18.63
2022-12-05T10:21:53.982Z,17.95
2022-12-05T10:24:28.763Z,16.17
2022-12-05T10:27:02.218Z,15.23
2022-12-05T10:29:34.662Z,17.80
2022-12-05T10:32:08.707Z,17.10
2022-12-05T10:34:43.533Z,17.58
2022-12-05T10:37:19.279Z,18.10
2022-12-05T10:39:49.474Z,16.33
2022-12-05T10:42:20.747Z,16.67
2022-12-05T10:44:51.366Z,16.55
2022-12-05T10:47:20.955Z,17.52
2022-12-05T10:49:50.552Z,17.55
2022-12-05T10:52:22.882Z,17.15
2022-12-05T10:54:57.484Z,16.88
2022-12-05T10:57:30.146Z,16.65
2022-12-05T11:00:00.000Z,16.33
2022-12-05T11:02:31.329Z,15.98
2022-12-05T11:05:01.481Z,16.33
2022-12-05T11:07:36.360Z,17.48
2022-12-05T11:10:24.907Z,15.63
2022-12-05T11:12:58.507Z,15.20
2022-12-05T11:15:29.615Z,14.68
2022-12-05T11:18:02.165Z,15.25
2022-12-05T11:20:41.343Z,15.57
2022-12-05T11:23:26.800Z,15.75
2022-12-05T11:25:56.846Z,14.82
2022-12-05T11:28:33.446Z,14.70
2022-12-05T11:31:04.334Z,14.00
2022-12-05T11:33:35.109Z,12.77
2022-12-05T11:36:09.296Z,14.65
2022-12-05T11:41:33.426Z,13.65
2022-12-05T11:44:16.214Z,14.90
2022-12-05T11:46:57.053Z,13.55
2022-12-05T11:49:43.449Z,15.13
2022-12-05T11:52:23.046Z,14.10
2022-12-05T11:55:08.343Z,14.02
2022-12-05T11:57:52.746Z,13.95
2022-12-05T12:00:26.293Z,15.30
2022-12-05T12:03:32.849Z,15.15
2022-12-05T12:06:17.977Z,15.68
2022-12-05T12:08:55.513Z,15.52
2022-12-05T12:11:32.139Z,16.23
2022-12-05T12:14:06.586Z,16.67
2022-12-05T12:16:41.611Z,16.15
2022-12-05T12:19:24.577Z,16.13
2022-12-05T12:22:11.609Z,16.23
2022-12-05T12:24:56.043Z,17.13
2022-12-05T12:30:06.666Z,16.30
2022-12-05T12:32:43.733Z,15.90
2022-12-05T12:35:30.398Z,15.55
2022-12-05T12:38:33.612Z,15.82
2022-12-05T12:41:09.735Z,15.70
2022-12-05T12:43:54.358Z,20.63
2022-12-05T12:46:36.263Z,16.75
2022-12-05T12:49:40.020Z,17.25
2022-12-05T12:52:14.780Z,16.10
2022-12-05T12:55:13.801Z,16.25
2022-12-05T12:58:02.401Z,14.38
2022-12-05T13:00:43.644Z,14.15
2022-12-05T13:03:17.179Z,15.30
2022-12-05T13:05:49.668Z,13.65
2022-12-05T13:08:25.087Z,12.95
2022-12-05T13:10:55.406Z,16.15
2022-12-05T13:13:32.469Z,13.93
2022-12-05T13:16:06.437Z,13.35
2022-12-05T13:18:36.965Z,13.00
2022-12-05T13:21:08.928Z,11.85
2022-12-05T13:23:43.918Z,11.90
2022-12-05T13:26:14.508Z,12.10
2022-12-05T13:28:54.348Z,12.73
2022-12-05T13:31:43.003Z,13.27
2022-12-05T13:34:46.294Z,14.90
2022-12-05T13:37:35.032Z,16.38
2022-12-05T13:40:17.283Z,14.02
2022-12-05T13:42:48.219Z,15.35
2022-12-05T13:45:20.219Z,13.50
2022-12-05T13:47:59.110Z,12.52
2022-12-05T13:50:33.698Z,11.95
2022-12-05T13:53:06.208Z,11.80
2022-12-05T13:55:37.657Z,11.75
2022-12-05T13:58:39.825Z,11.50
2022-12-05T14:01:45.561Z,11.40
2022-12-05T14:04:50.798Z,12.90
2022-12-05T14:07:43.166Z,12.10
2022-12-05T14:10:16.722Z,12.15
2022-12-05T14:12:58.042Z,12.65
2022-12-05T14:15:37.916Z,13.32
2022-12-05T14:18:13.862Z,13.75
2022-12-05T14:21:01.780Z,12.60
2022-12-05T14:23:52.888Z,11.93
2022-12-05T14:26:35.190Z,16.63
2022-12-05T14:29:15.379Z,12.93
2022-12-05T14:31:53.116Z,13.88
2022-12-05T14:34:25.689Z,12.40
2022-12-05T14:37:01.092Z,12.60
2022-12-05T14:39:36.378Z,12.15
2022-12-05T14:42:08.629Z,12.30
2022-12-05T14:44:38.236Z,13.00
2022-12-05T14:47:09.660Z,15.05
2022-12-05T14:49:55.409Z,15.73
2022-12-05T14:52:29.959Z,13.13
2022-12-05T14:55:04.124Z,12.48
2022-12-05T15:00:06.696Z,11.73
2022-12-05T15:02:40.000Z,12.23
2022-12-05T15:05:22.796Z,12.48
2022-12-05T15:07:55.660Z,11.57
2022-12-05T15:10:26.996Z,12.27
2022-12-05T15:12:59.577Z,11.75
2022-12-05T15:15:36.682Z,11.52
2022-12-05T15:18:13.593Z,11.05
2022-12-05T15:20:47.558Z,11.43
2022-12-05T15:23:45.117Z,11.00
2022-12-05T15:29:15.761Z,13.13
2022-12-05T15:31:48.835Z,12.25
2022-12-05T15:34:23.140Z,12.27
2022-12-05T15:36:57.524Z,10.68
2022-12-05T15:39:30.070Z,10.82
2022-12-05T15:42:02.111Z,10.20
2022-12-05T15:44:38.035Z,11.18
2022-12-05T15:47:08.011Z,9.93
2022-12-05T15:49:38.175Z,11.55
2022-12-05T15:52:13.839Z,10.48
2022-12-05T15:54:46.423Z,14.20
2022-12-05T15:57:20.058Z,11.23
2022-12-05T15:59:51.275Z,10.65
2022-12-05T16:02:24.840Z,10.02
2022-12-05T16:04:56.816Z,9.40
2022-12-05T16:07:27.542Z,10.00
2022-12-05T16:10:02.568Z,9.70
2022-12-05T16:12:37.433Z,9.70
2022-12-05T16:15:13.936Z,10.10
2022-12-05T16:17:45.568Z,10.23
2022-12-05T16:20:42.229Z,10.18
2022-12-05T16:23:27.715Z,12.32
2022-12-05T16:26:13.183Z,10.43
2022-12-05T16:28:42.883Z,10.93
2022-12-05T16:31:18.611Z,10.80
2022-12-05T16:33:48.335Z,11.77
2022-12-05T16:36:24.791Z,10.95
2022-12-05T16:39:03.507Z,11.48
2022-12-05T16:41:42.625Z,11.15
2022-12-05T16:44:58.063Z,10.40
2022-12-05T16:47:29.297Z,11.32
2022-12-05T16:49:58.881Z,11.63
2022-12-05T16:52:33.399Z,11.90
2022-12-05T16:55:02.947Z,12.75
2022-12-05T16:57:35.106Z,11.90
2022-12-05T17:00:06.559Z,10.95
2022-12-05T17:02:36.198Z,10.10
2022-12-05T17:05:06.036Z,11.50
2022-12-05T17:07:35.672Z,10.85
2022-12-05T17:10:05.269Z,10.23
2022-12-05T17:12:37.528Z,9.50
2022-12-05T17:15:07.924Z,9.65
2022-12-05T17:17:37.487Z,9.50
2022-12-05T17:20:08.474Z,9.02
2022-12-05T17:22:38.182Z,9.65
2022-12-05T17:25:18.712Z,9.77
2022-12-05T17:27:50.904Z,9.43
2022-12-05T17:30:20.644Z,9.57
2022-12-05T17:32:50.426Z,12.40
2022-12-05T17:35:22.162Z,10.52
2022-12-05T17:37:51.763Z,10.82
2022-12-05T17:40:21.518Z,11.13
2022-12-05T17:42:53.658Z,11.05
2022-12-05T17:45:23.421Z,10.50
2022-12-05T17:47:53.305Z,10.25
2022-12-05T17:50:24.604Z,10.10
2022-12-05T17:52:57.291Z,9.98
2022-12-05T17:55:28.248Z,8.90
2022-12-05T17:58:00.471Z,8.90
2022-12-05T18:00:30.156Z,8.90
2022-12-05T18:02:59.904Z,8.98
2022-12-05T18:05:29.565Z,9.77
2022-12-05T18:07:59.322Z,10.23
2022-12-05T18:10:28.922Z,9.85
2022-12-05T18:13:01.211Z,9.48
2022-12-05T18:15:31.119Z,9.57
2022-12-05T18:18:03.162Z,10.20
2022-12-05T18:20:32.896Z,9.63
2022-12-05T18:23:02.787Z,10.43
2022-12-05T18:25:32.568Z,11.38
2022-12-05T18:28:04.778Z,11.48
2022-12-05T18:30:34.436Z,13.00
2022-12-05T18:33:04.028Z,13.32
2022-12-05T18:35:45.423Z,12.35
2022-12-05T18:38:15.286Z,12.20
2022-12-05T18:40:44.938Z,12.52
2022-12-05T18:43:17.323Z,12.38
2022-12-05T18:45:47.718Z,14.48
2022-12-05T18:48:37.893Z,16.17
2022-12-05T18:51:11.986Z,13.73
2022-12-05T18:53:41.833Z,14.60
2022-12-05T18:56:22.270Z,15.52
2022-12-05T18:59:00.041Z,14.93
2022-12-05T19:01:30.831Z,14.65
2022-12-05T19:04:01.184Z,14.18
2022-12-05T19:06:32.897Z,15.07
2022-12-05T19:09:03.967Z,14.13
2022-12-05T19:11:34.086Z,14.90
2022-12-05T19:14:07.634Z,16.50
2022-12-05T19:16:37.842Z,14.93
2022-12-05T19:19:09.603Z,14.02
2022-12-05T19:21:39.494Z,14.02
2022-12-05T19:24:10.412Z,14.07
2022-12-05T19:26:40.048Z,14.73
2022-12-05T19:29:13.822Z,13.35
2022-12-05T19:31:43.474Z,14.60
2022-12-05T19:34:13.363Z,14.23
2022-12-05T19:36:44.462Z,14.48
2022-12-05T19:39:17.385Z,16.80
2022-12-05T19:41:47.080Z,16.83
2022-12-05T19:44:19.356Z,14.20
2022-12-05T19:46:48.991Z,14.68
2022-12-05T19:49:19.240Z,13.43
2022-12-05T19:51:49.036Z,13.38
2022-12-05T19:54:22.066Z,13.65
2022-12-05T19:56:52.174Z,13.75
2022-12-05T19:59:24.308Z,12.00
2022-12-05T20:01:54.196Z,13.50
2022-12-05T20:04:23.831Z,12.43
2022-12-05T20:06:53.429Z,12.90
2022-12-05T20:09:24.586Z,13.45
2022-12-05T20:11:55.876Z,13.18
2022-12-05T20:14:28.568Z,13.27
2022-12-05T20:16:58.292Z,12.55
2022-12-05T20:19:27.925Z,13.77
2022-12-05T20:21:58.755Z,13.60
2022-12-05T20:24:28.311Z,14.25
2022-12-05T20:26:57.953Z,14.75
2022-12-05T20:29:30.605Z,14.40
2022-12-05T20:32:00.203Z,14.80
2022-12-05T20:34:29.794Z,13.77
2022-12-05T20:36:59.521Z,15.60
2022-12-05T20:39:29.999Z,14.82
2022-12-05T20:41:59.613Z,15.52
2022-12-05T20:44:31.827Z,15.80
2022-12-05T20:47:01.452Z,16.02
2022-12-05T20:49:31.016Z,14.10
2022-12-05T20:52:00.599Z,15.43
2022-12-05T20:54:30.346Z,16.60
2022-12-05T20:56:59.934Z,14.80
2022-12-05T20:59:32.042Z,16.13
2022-12-05T21:02:01.763Z,16.52
2022-12-05T21:04:32.386Z,16.33
2022-12-05T21:07:01.981Z,15.70
2022-12-05T21:09:31.931Z,16.58
2022-12-05T21:12:01.579Z,14.45
2022-12-05T21:14:34.271Z,15.88
2022-12-05T21:17:03.848Z,15.23
2022-12-05T21:19:33.383Z,15.25
2022-12-05T21:22:02.959Z,16.20
2022-12-05T21:24:32.552Z,16.02
2022-12-05T21:27:02.266Z,15.52
2022-12-05T21:29:34.472Z,16.05
2022-12-05T21:32:04.019Z,15.95
2022-12-05T21:34:33.612Z,16.08
2022-12-05T21:37:03.493Z,17.95
2022-12-05T21:39:33.038Z,17.17
2022-12-05T21:42:02.595Z,17.05
2022-12-05T21:44:34.739Z,18.13
2022-12-05T21:47:04.447Z,16.67
2022-12-05T21:49:34.035Z,16.23
2022-12-05T21:52:03.798Z,16.50
2022-12-05T21:54:33.501Z,16.33
2022-12-05T21:57:03.082Z,16.73
2022-12-05T21:59:35.254Z,16.58
2022-12-05T22:02:04.834Z,16.58
2022-12-05T22:04:34.369Z,16.98
2022-12-05T22:07:03.933Z,18.27
2022-12-05T22:09:33.534Z,18.20
2022-12-05T22:12:03.355Z,17.52
2022-12-05T22:14:35.546Z,16.40
2022-12-05T22:17:05.380Z,17.20
2022-12-05T22:19:34.919Z,18.75
2022-12-05T22:22:04.580Z,17.60
2022-12-05T22:24:34.135Z,16.35
2022-12-05T22:27:03.733Z,16.85
2022-12-05T22:29:35.868Z,17.13
2022-12-05T22:32:05.461Z,17.42
2022-12-05T22:34:35.147Z,18.27
2022-12-05T22:37:04.738Z,17.60
2022-12-05T22:39:34.280Z,17.23
2022-12-05T22:42:03.841Z,16.98
2022-12-05T22:44:35.970Z,16.40
2022-12-05T22:47:05.759Z,16.35
2022-12-05T22:49:35.347Z,15.70
2022-12-05T22:52:05.418Z,16.65
2022-12-05T22:54:34.984Z,15.73
2022-12-05T22:57:04.512Z,16.70
2022-12-05T22:59:36.635Z,15.25
2022-12-05T23:02:06.387Z,16.05
2022-12-05T23:04:36.094Z,15.93
2022-12-05T23:07:05.868Z,14.93
2022-12-05T23:09:35.592Z,16.60
2022-12-05T23:12:05.342Z,16.27
2022-12-05T23:14:37.651Z,16.17
2022-12-05T23:17:07.404Z,16.83
2022-12-05T23:19:37.120Z,16.15
2022-12-05T23:22:06.844Z,15.95
2022-12-05T23:24:36.596Z,15.55
2022-12-05T23:27:06.373Z,15.23
2022-12-05T23:29:38.766Z,15.30
2022-12-05T23:32:08.591Z,15.25
2022-12-05T23:34:38.362Z,15.18
2022-12-05T23:37:08.055Z,15.15
2022-12-05T23:39:37.789Z,15.00
2022-12-05T23:42:12.162Z,15.48
2022-12-05T23:44:47.344Z,16.77
2022-12-05T23:47:17.467Z,14.95
2022-12-05T23:49:47.249Z,15.70
2022-12-05T23:52:16.972Z,15.02
2022-12-05T23:54:47.026Z,15.35
2022-12-05T23:57:17.913Z,16.00
2022-12-05T23:59:51.168Z,14.60
